Time;durP1;ratioP1;P1;durP2;ratioP2;P2;SDS_P1;SDS_P2;PMS_P1;PMS_P2;Temp;Humidity;BMP_temperature;BMP_pressure;BME280_temperature;BME280_humidity;BME280_pressure;Samples;Min_cycle;Max_cycle;Signal;HPM_P1;HPM_P2
2022/08/25 00:00:17;;;;;;;2.00;1.83;;;25.60;89.40;;;;;;5051414;28;20044;-36
2022/08/25 00:02:42;;;;;;;1.95;1.60;;;25.60;89.20;;;;;;5050205;28;20021;-36
2022/08/25 00:05:08;;;;;;;2.05;1.80;;;25.60;89.00;;;;;;5050662;28;20048;-35
2022/08/25 00:07:35;;;;;;;2.13;1.70;;;25.60;88.80;;;;;;5050772;28;20025;-36
2022/08/25 00:10:00;;;;;;;2.30;1.70;;;25.60;88.70;;;;;;5049667;28;20029;-36
2022/08/25 00:12:27;;;;;;;2.17;1.90;;;25.60;88.10;;;;;;5049859;28;20053;-36
2022/08/25 00:14:53;;;;;;;2.20;1.95;;;25.50;87.50;;;;;;5050298;28;20035;-36
2022/08/25 00:17:19;;;;;;;4.63;2.03;;;25.50;87.30;;;;;;5049536;28;20075;-37
2022/08/25 00:19:44;;;;;;;2.60;1.90;;;25.50;87.20;;;;;;5049925;28;20033;-36
2022/08/25 00:22:10;;;;;;;2.03;1.80;;;25.50;87.10;;;;;;5050639;28;20223;-35
2022/08/25 00:24:36;;;;;;;2.35;1.95;;;25.50;87.00;;;;;;5049006;28;20478;-38
2022/08/25 00:27:01;;;;;;;2.22;2.03;;;25.50;87.00;;;;;;5050147;28;20094;-35
2022/08/25 00:29:28;;;;;;;2.28;1.90;;;25.50;86.80;;;;;;5049865;28;20025;-35
2022/08/25 00:31:55;;;;;;;3.90;2.13;;;25.50;86.40;;;;;;5048991;28;20044;-34
2022/08/25 00:34:25;;;;;;;1.90;1.60;;;25.50;86.40;;;;;;5050620;28;20436;-35
2022/08/25 00:36:51;;;;;;;1.85;1.63;;;25.40;86.30;;;;;;5046756;28;20063;-35
2022/08/25 00:39:19;;;;;;;2.47;2.00;;;25.40;86.00;;;;;;5046818;28;20063;-35
2022/08/25 00:41:47;;;;;;;2.53;1.85;;;25.50;86.00;;;;;;5046178;28;20333;-36
2022/08/25 00:44:16;;;;;;;2.00;1.85;;;25.50;85.50;;;;;;5047319;28;20039;-35
2022/08/25 00:46:46;;;;;;;1.80;1.70;;;25.50;85.50;;;;;;5046423;28;20031;-36
2022/08/25 00:49:24;;;;;;;1.80;1.60;;;25.40;85.30;;;;;;5043168;28;20021;-35
2022/08/25 00:52:04;;;;;;;1.50;1.40;;;25.40;85.20;;;;;;5046111;28;20033;-35
2022/08/25 00:54:36;;;;;;;2.00;1.83;;;25.40;85.20;;;;;;5044215;28;20028;-35
2022/08/25 00:57:04;;;;;;;2.00;1.80;;;25.40;85.00;;;;;;5046279;28;20442;-37
2022/08/25 00:59:30;;;;;;;1.65;1.55;;;25.40;85.10;;;;;;5045618;28;20468;-35
2022/08/25 01:01:57;;;;;;;2.75;1.85;;;25.30;85.10;;;;;;5046181;28;20025;-35
2022/08/25 01:04:23;;;;;;;2.03;1.75;;;25.30;85.10;;;;;;5046164;28;20049;-36
2022/08/25 01:06:48;;;;;;;2.10;1.92;;;25.30;85.20;;;;;;5045716;28;20054;-36
2022/08/25 01:09:15;;;;;;;2.45;2.00;;;25.20;84.70;;;;;;5046713;28;20468;-36
2022/08/25 01:11:43;;;;;;;2.63;1.75;;;25.20;84.80;;;;;;5046493;28;20047;-35
2022/08/25 01:14:11;;;;;;;2.83;1.95;;;25.20;84.90;;;;;;5045536;28;20021;-36
2022/08/25 01:16:38;;;;;;;2.67;1.90;;;25.20;84.80;;;;;;5046443;28;20029;-35
2022/08/25 01:19:05;;;;;;;5.07;2.72;;;25.20;84.70;;;;;;5046231;28;20059;-36
2022/08/25 01:21:39;;;;;;;2.08;1.83;;;25.20;84.20;;;;;;5045905;28;20483;-34
2022/08/25 01:24:05;;;;;;;2.10;1.90;;;25.10;84.20;;;;;;5045881;28;20092;-37
2022/08/25 01:26:33;;;;;;;2.10;1.90;;;25.10;83.90;;;;;;5045390;28;20090;-36
2022/08/25 01:29:24;;;;;;;2.38;2.17;;;25.20;83.80;;;;;;5046308;28;20107;-37
2022/08/25 01:31:55;;;;;;;2.67;1.90;;;25.10;83.50;;;;;;5046101;28;20491;-35
2022/08/25 01:34:21;;;;;;;2.00;1.90;;;25.10;83.40;;;;;;5045441;28;20107;-35
2022/08/25 01:36:46;;;;;;;2.90;2.40;;;25.10;83.20;;;;;;5045283;28;20123;-35
2022/08/25 01:39:13;;;;;;;2.05;1.85;;;25.10;83.00;;;;;;5046116;28;20100;-36
2022/08/25 01:41:47;;;;;;;2.55;2.10;;;25.10;83.00;;;;;;5045130;28;20132;-37
2022/08/25 01:44:13;;;;;;;2.10;1.90;;;25.10;82.60;;;;;;5045976;28;20025;-35
2022/08/25 01:46:39;;;;;;;3.15;2.08;;;25.10;82.50;;;;;;5046212;28;20071;-35
2022/08/25 01:49:05;;;;;;;4.13;2.28;;;25.10;82.30;;;;;;5044160;28;20029;-37
2022/08/25 01:51:42;;;;;;;3.72;2.20;;;25.10;82.00;;;;;;5045230;28;20396;-37
2022/08/25 01:54:08;;;;;;;2.83;2.28;;;25.10;81.60;;;;;;5045742;28;20113;-37
2022/08/25 01:56:33;;;;;;;3.15;2.38;;;25.10;81.40;;;;;;5044819;28;20445;-35
2022/08/25 01:58:59;;;;;;;3.72;1.90;;;25.20;81.50;;;;;;5046124;28;20500;-37
2022/08/25 02:01:25;;;;;;;3.05;2.35;;;25.20;81.40;;;;;;5044883;28;20017;-36
2022/08/25 02:03:53;;;;;;;2.10;1.88;;;25.20;80.40;;;;;;5045307;28;20377;-38
2022/08/25 02:06:31;;;;;;;2.10;1.90;;;25.20;80.50;;;;;;5045955;28;20045;-35
2022/08/25 02:09:07;;;;;;;4.07;1.90;;;25.20;80.50;;;;;;5045342;28;20029;-35
2022/08/25 02:11:36;;;;;;;3.28;2.05;;;25.30;80.60;;;;;;5045188;28;20040;-36
2022/08/25 02:14:01;;;;;;;2.78;1.63;;;25.30;80.50;;;;;;5045336;28;20329;-38
2022/08/25 02:16:30;;;;;;;4.13;2.00;;;25.30;80.50;;;;;;5044804;28;20476;-37
2022/08/25 02:18:57;;;;;;;3.20;2.10;;;25.30;80.40;;;;;;5025871;28;20021;-36
2022/08/25 02:21:23;;;;;;;2.53;1.90;;;25.30;80.30;;;;;;5040088;28;20036;-35
2022/08/25 02:23:49;;;;;;;2.47;1.70;;;25.30;80.30;;;;;;5044571;28;20017;-36
2022/08/25 02:26:15;;;;;;;3.05;1.70;;;25.30;80.40;;;;;;5045036;28;20108;-37
2022/08/25 02:28:42;;;;;;;2.08;1.88;;;25.30;80.40;;;;;;5045065;28;20029;-38
2022/08/25 02:31:08;;;;;;;2.10;1.70;;;25.30;80.30;;;;;;5044141;28;20543;-36
2022/08/25 02:33:34;;;;;;;2.08;1.90;;;25.30;80.00;;;;;;5045132;28;20029;-36
2022/08/25 02:36:00;;;;;;;2.08;1.88;;;25.30;80.00;;;;;;5044539;28;20400;-37
2022/08/25 02:38:27;;;;;;;2.25;1.70;;;25.30;79.80;;;;;;5043781;28;20074;-35
2022/08/25 02:40:54;;;;;;;2.47;1.73;;;25.30;79.90;;;;;;5044955;28;20033;-35
2022/08/25 02:43:20;;;;;;;2.38;2.08;;;25.30;79.80;;;;;;5045097;28;20704;-35
2022/08/25 02:45:45;;;;;;;4.07;1.73;;;25.30;79.80;;;;;;5043791;28;20045;-36
2022/08/25 02:48:11;;;;;;;2.45;1.70;;;25.20;79.60;;;;;;5045272;28;20021;-35
2022/08/25 02:50:36;;;;;;;1.85;1.63;;;25.30;79.70;;;;;;5043369;28;20452;-37
2022/08/25 02:53:02;;;;;;;1.95;1.75;;;25.20;79.60;;;;;;5036916;28;20377;-36
2022/08/25 02:55:28;;;;;;;1.92;1.77;;;25.20;79.60;;;;;;5044730;28;20469;-36
2022/08/25 02:57:53;;;;;;;3.65;1.70;;;25.20;79.60;;;;;;5044204;28;20021;-37
2022/08/25 03:00:20;;;;;;;2.38;1.67;;;25.10;79.50;;;;;;5043665;28;20025;-35
2022/08/25 03:02:46;;;;;;;2.42;1.80;;;25.10;79.50;;;;;;5043739;28;20078;-35
2022/08/25 03:05:13;;;;;;;2.35;1.85;;;25.10;79.60;;;;;;5043568;28;20056;-35
2022/08/25 03:07:39;;;;;;;1.92;1.80;;;25.00;79.60;;;;;;5043795;28;20036;-36
2022/08/25 03:10:07;;;;;;;1.90;1.70;;;25.00;79.60;;;;;;5044375;28;20025;-37
2022/08/25 03:12:33;;;;;;;1.80;1.70;;;24.90;79.60;;;;;;5043961;28;20101;-36
2022/08/25 03:14:58;;;;;;;4.55;2.30;;;24.90;79.70;;;;;;5044058;28;20473;-35
2022/08/25 03:17:24;;;;;;;2.10;1.80;;;24.90;79.60;;;;;;5043950;28;20025;-36
2022/08/25 03:19:49;;;;;;;1.83;1.70;;;24.90;79.70;;;;;;5043761;28;20057;-36
2022/08/25 03:22:15;;;;;;;2.78;2.15;;;24.80;79.70;;;;;;5044172;28;20120;-35
2022/08/25 03:24:40;;;;;;;2.40;1.63;;;24.80;79.80;;;;;;5044200;28;20025;-35
2022/08/25 03:27:06;;;;;;;2.75;1.80;;;24.70;79.90;;;;;;5043307;28;20078;-36
2022/08/25 03:29:32;;;;;;;2.40;1.80;;;24.70;80.00;;;;;;5043682;28;20017;-36
2022/08/25 03:31:58;;;;;;;1.92;1.40;;;24.70;80.10;;;;;;5043683;28;20051;-35
2022/08/25 03:34:27;;;;;;;2.03;1.60;;;24.70;80.20;;;;;;5042817;28;20035;-36
2022/08/25 03:36:53;;;;;;;1.95;1.63;;;24.60;80.20;;;;;;5043859;28;20472;-35
2022/08/25 03:39:22;;;;;;;3.35;1.70;;;24.60;80.20;;;;;;5043669;28;20028;-35
2022/08/25 03:41:49;;;;;;;2.33;1.50;;;24.60;80.20;;;;;;5043075;28;20056;-36
2022/08/25 03:44:15;;;;;;;1.67;1.58;;;24.60;80.20;;;;;;5043518;28;20095;-36
2022/08/25 03:46:44;;;;;;;2.72;1.42;;;24.50;80.20;;;;;;5043290;28;20141;-37
2022/08/25 03:49:14;;;;;;;4.07;2.28;;;24.50;80.30;;;;;;5042804;28;20111;-36
2022/08/25 03:51:45;;;;;;;3.42;2.00;;;24.40;80.30;;;;;;5043698;28;20041;-35
2022/08/25 03:54:12;;;;;;;1.70;1.60;;;24.40;80.40;;;;;;5043130;28;20381;-35
2022/08/25 03:56:38;;;;;;;2.03;1.83;;;24.40;80.50;;;;;;5043135;28;20491;-36
2022/08/25 03:59:04;;;;;;;2.05;1.80;;;24.40;80.50;;;;;;5043232;28;20029;-35
2022/08/25 04:01:30;;;;;;;2.28;1.70;;;24.40;80.60;;;;;;5043110;28;20510;-35
2022/08/25 04:03:56;;;;;;;2.25;2.00;;;24.30;80.60;;;;;;5043095;28;20108;-36
2022/08/25 04:06:22;;;;;;;4.40;2.17;;;24.30;80.60;;;;;;5044281;28;20049;-36
2022/08/25 04:08:47;;;;;;;2.28;1.80;;;24.30;80.60;;;;;;5042596;28;20582;-37
2022/08/25 04:11:16;;;;;;;2.20;2.00;;;24.30;80.70;;;;;;5045071;28;20033;-34
2022/08/25 04:13:42;;;;;;;2.05;1.90;;;24.20;80.70;;;;;;5047204;28;20448;-37
2022/08/25 04:16:18;;;;;;;2.20;2.00;;;24.20;80.70;;;;;;5046635;28;20483;-36
2022/08/25 04:18:45;;;;;;;2.40;1.90;;;24.20;80.70;;;;;;5047355;28;20044;-35
2022/08/25 04:21:12;;;;;;;2.72;2.10;;;24.20;80.80;;;;;;5047546;28;20150;-37
2022/08/25 04:23:40;;;;;;;3.38;1.90;;;24.10;81.40;;;;;;5047044;28;20025;-36
2022/08/25 04:26:14;;;;;;;2.33;2.03;;;24.10;80.90;;;;;;5046976;28;20029;-36
2022/08/25 04:28:40;;;;;;;2.38;2.17;;;24.10;81.00;;;;;;5046689;28;20111;-38
2022/08/25 04:31:08;;;;;;;2.42;1.77;;;24.00;81.00;;;;;;5046571;28;20120;-37
2022/08/25 04:33:35;;;;;;;3.13;2.35;;;24.00;81.10;;;;;;5047013;28;20032;-36
2022/08/25 04:36:01;;;;;;;3.05;2.22;;;24.00;81.20;;;;;;5046559;28;20549;-36
2022/08/25 04:38:27;;;;;;;2.22;2.03;;;23.90;81.10;;;;;;5046936;28;20503;-37
2022/08/25 04:41:04;;;;;;;2.63;2.20;;;23.90;81.20;;;;;;5046189;28;20039;-35
2022/08/25 04:43:31;;;;;;;2.17;1.85;;;23.90;82.00;;;;;;5046637;28;20031;-34
2022/08/25 04:45:57;;;;;;;2.20;1.70;;;23.80;81.30;;;;;;5046887;28;20063;-35
2022/08/25 04:48:23;;;;;;;1.90;1.80;;;23.80;81.40;;;;;;5046712;28;20560;-34
2022/08/25 04:50:49;;;;;;;2.30;2.10;;;23.80;82.10;;;;;;5045785;28;20029;-35
2022/08/25 04:53:15;;;;;;;2.42;2.20;;;23.70;81.50;;;;;;5046905;28;20534;-35
2022/08/25 04:55:43;;;;;;;3.72;2.30;;;23.70;81.60;;;;;;5046404;28;20104;-35
2022/08/25 04:58:08;;;;;;;2.92;2.45;;;23.70;81.60;;;;;;5045880;28;20025;-35
2022/08/25 05:00:35;;;;;;;2.58;2.30;;;23.70;81.70;;;;;;5045907;28;20472;-35
2022/08/25 05:03:02;;;;;;;2.60;2.28;;;23.70;81.70;;;;;;5046547;28;20040;-35
2022/08/25 05:05:28;;;;;;;2.92;2.03;;;23.60;81.70;;;;;;5044641;28;20047;-36
2022/08/25 05:07:53;;;;;;;2.60;2.30;;;23.60;81.80;;;;;;5046014;28;20037;-36
2022/08/25 05:10:19;;;;;;;3.33;2.60;;;23.60;81.80;;;;;;5046767;28;20123;-38
2022/08/25 05:12:45;;;;;;;3.17;2.20;;;23.60;81.90;;;;;;5045051;28;20047;-36
2022/08/25 05:17:56;;;;;;;2.08;1.88;;;23.60;82.00;;;;;;5046035;28;20036;-36
2022/08/25 05:20:22;;;;;;;4.05;2.45;;;23.60;82.10;;;;;;5046195;28;20021;-35
2022/08/25 05:22:48;;;;;;;3.80;2.33;;;23.50;82.20;;;;;;5045172;28;20033;-35
2022/08/25 05:25:13;;;;;;;2.22;2.03;;;23.50;82.30;;;;;;5046775;28;20028;-36
2022/08/25 05:27:40;;;;;;;2.40;2.08;;;23.50;82.30;;;;;;5045669;28;20064;-36
2022/08/25 05:30:07;;;;;;;3.28;2.50;;;23.50;82.30;;;;;;5045988;28;20365;-35
2022/08/25 05:32:33;;;;;;;4.75;2.17;;;23.50;82.40;;;;;;5049415;28;20686;-36
2022/08/25 05:34:58;;;;;;;2.50;2.30;;;23.50;82.50;;;;;;5045644;28;20112;-35
2022/08/25 05:37:24;;;;;;;3.20;2.30;;;23.50;82.50;;;;;;5045480;28;20031;-37
2022/08/25 05:39:49;;;;;;;2.70;2.08;;;23.50;82.60;;;;;;5042251;28;20033;-36
2022/08/25 05:42:15;;;;;;;2.65;2.45;;;23.50;82.60;;;;;;5044408;28;20530;-36
2022/08/25 05:44:40;;;;;;;3.10;2.05;;;23.50;82.60;;;;;;5043314;28;20033;-35
2022/08/25 05:47:06;;;;;;;3.88;2.20;;;23.50;82.60;;;;;;5043660;28;20017;-36
2022/08/25 05:49:32;;;;;;;3.45;2.30;;;23.50;82.50;;;;;;5044071;28;20040;-36
2022/08/25 05:51:58;;;;;;;3.95;2.40;;;23.50;82.60;;;;;;5044445;28;20029;-35
2022/08/25 05:54:24;;;;;;;2.55;2.17;;;23.50;82.60;;;;;;5043848;28;20363;-35
2022/08/25 05:56:50;;;;;;;3.88;2.50;;;23.50;82.60;;;;;;5045017;28;20102;-37
2022/08/25 05:59:15;;;;;;;2.65;2.33;;;23.50;82.60;;;;;;5044970;28;20021;-36
2022/08/25 06:04:26;;;;;;;2.50;2.30;;;23.50;82.70;;;;;;5043918;28;20144;-36
2022/08/25 06:06:53;;;;;;;2.70;2.33;;;23.50;82.70;;;;;;5043724;28;20151;-35
2022/08/25 06:09:20;;;;;;;3.50;2.28;;;23.50;82.80;;;;;;5043843;28;20087;-37
2022/08/25 06:11:46;;;;;;;2.22;2.00;;;23.60;82.90;;;;;;5043891;28;20043;-37
2022/08/25 06:14:12;;;;;;;2.25;2.05;;;23.60;82.90;;;;;;5044574;28;20064;-36
2022/08/25 06:16:39;;;;;;;2.25;1.80;;;23.60;82.90;;;;;;5044406;28;20104;-36
2022/08/25 06:19:05;;;;;;;3.45;2.20;;;23.60;82.80;;;;;;5044517;28;20028;-36
2022/08/25 06:21:31;;;;;;;2.15;1.95;;;23.60;82.90;;;;;;5044656;28;20060;-36
2022/08/25 06:23:56;;;;;;;2.95;2.10;;;23.60;82.90;;;;;;5044965;28;20064;-36
2022/08/25 06:26:22;;;;;;;2.83;2.30;;;23.70;83.00;;;;;;5045253;28;20053;-35
2022/08/25 06:28:49;;;;;;;4.57;2.58;;;23.70;83.00;;;;;;5044172;28;20017;-37
2022/08/25 06:31:15;;;;;;;3.67;2.75;;;23.70;83.00;;;;;;5044584;28;20044;-36
2022/08/25 06:33:42;;;;;;;2.78;2.00;;;23.70;83.00;;;;;;5044593;28;20432;-38
2022/08/25 06:36:07;;;;;;;2.42;2.15;;;23.80;83.00;;;;;;5043724;28;20435;-36
2022/08/25 06:38:33;;;;;;;2.33;2.00;;;23.80;83.00;;;;;;5043939;28;20029;-36
2022/08/25 06:41:02;;;;;;;4.68;3.17;;;23.80;83.00;;;;;;5044632;28;20116;-36
2022/08/25 06:43:28;;;;;;;3.20;2.28;;;23.80;82.70;;;;;;5043076;28;20021;-35
2022/08/25 06:45:53;;;;;;;3.78;2.30;;;23.90;82.70;;;;;;5044119;28;20036;-36
2022/08/25 06:48:19;;;;;;;5.68;2.40;;;23.90;82.50;;;;;;5044326;28;20033;-37
2022/08/25 06:50:44;;;;;;;3.00;2.30;;;23.90;82.50;;;;;;5043250;28;20037;-36
2022/08/25 06:53:10;;;;;;;5.40;2.30;;;23.90;82.40;;;;;;5044249;28;20033;-36
2022/08/25 06:55:36;;;;;;;2.60;2.00;;;24.00;82.40;;;;;;5043186;28;20029;-37
2022/08/25 06:58:03;;;;;;;3.97;2.10;;;24.00;82.30;;;;;;5043391;28;20032;-36
2022/08/25 07:00:29;;;;;;;3.55;2.30;;;24.10;82.30;;;;;;5043732;28;20021;-36
2022/08/25 07:02:54;;;;;;;3.30;1.90;;;24.10;82.30;;;;;;5043622;28;20108;-35
2022/08/25 07:05:20;;;;;;;2.78;2.00;;;24.20;82.20;;;;;;5043605;28;20113;-35
2022/08/25 07:07:46;;;;;;;3.95;2.00;;;24.20;82.10;;;;;;5043198;28;20469;-36
2022/08/25 07:10:12;;;;;;;2.97;1.80;;;24.20;82.00;;;;;;5043880;28;20423;-37
2022/08/25 07:12:38;;;;;;;3.13;2.00;;;24.30;82.00;;;;;;5043695;28;20035;-35
2022/08/25 07:15:05;;;;;;;3.60;2.10;;;24.30;81.90;;;;;;5044145;28;20040;-36
2022/08/25 07:17:30;;;;;;;3.42;2.10;;;24.40;82.50;;;;;;5043893;28;20093;-37
2022/08/25 07:19:59;;;;;;;2.47;2.00;;;24.40;81.70;;;;;;5043157;28;20017;-36
2022/08/25 07:22:24;;;;;;;2.17;1.80;;;24.40;81.60;;;;;;5044088;28;20155;-36
2022/08/25 07:24:50;;;;;;;2.40;2.20;;;24.50;81.60;;;;;;5043142;28;20116;-37
2022/08/25 07:27:15;;;;;;;2.20;2.00;;;24.60;81.50;;;;;;5043496;28;20025;-37
2022/08/25 07:29:41;;;;;;;3.35;1.98;;;24.60;81.40;;;;;;5043378;28;20036;-35
2022/08/25 07:32:06;;;;;;;3.17;2.50;;;24.60;81.40;;;;;;5042538;28;20151;-37
2022/08/25 07:37:16;;;;;;;2.40;2.00;;;24.70;81.30;;;;;;5044556;28;20060;-36
2022/08/25 07:39:42;;;;;;;2.30;2.10;;;24.70;81.20;;;;;;5043231;28;20025;-35
2022/08/25 07:42:08;;;;;;;3.03;2.13;;;24.80;81.20;;;;;;5043690;28;20058;-35
2022/08/25 07:44:33;;;;;;;3.38;1.90;;;24.90;81.20;;;;;;5043777;28;20112;-36
2022/08/25 07:46:59;;;;;;;2.50;2.10;;;24.90;81.10;;;;;;5045755;28;20029;-35
2022/08/25 07:49:25;;;;;;;2.88;2.17;;;24.90;81.00;;;;;;5047814;28;20366;-37
2022/08/25 07:51:52;;;;;;;3.15;2.05;;;25.00;81.00;;;;;;5047857;28;20037;-34
2022/08/25 07:54:18;;;;;;;2.22;1.92;;;25.00;80.80;;;;;;5047217;28;20021;-36
2022/08/25 07:56:44;;;;;;;3.33;2.30;;;25.10;80.70;;;;;;5046885;28;20032;-36
2022/08/25 07:59:10;;;;;;;2.67;2.00;;;25.20;80.70;;;;;;5048158;28;20036;-36
2022/08/25 08:01:36;;;;;;;3.40;2.30;;;25.20;80.60;;;;;;5046395;28;20098;-36
2022/08/25 08:04:02;;;;;;;2.30;2.05;;;25.30;80.60;;;;;;5046877;28;20041;-36
2022/08/25 08:06:28;;;;;;;2.63;1.95;;;25.40;80.50;;;;;;5046549;28;20021;-35
2022/08/25 08:08:54;;;;;;;2.45;2.08;;;25.40;80.40;;;;;;5044699;28;20037;-36
2022/08/25 08:11:22;;;;;;;3.95;1.83;;;25.50;80.50;;;;;;5046538;28;20846;-35
2022/08/25 08:13:48;;;;;;;2.05;1.83;;;25.50;80.40;;;;;;5046322;28;20078;-35
2022/08/25 08:16:16;;;;;;;2.05;1.85;;;25.60;80.40;;;;;;5045539;28;20029;-37
2022/08/25 08:18:44;;;;;;;2.85;2.00;;;25.60;80.30;;;;;;5047191;28;20450;-38
2022/08/25 08:21:18;;;;;;;2.92;2.17;;;25.70;80.30;;;;;;5047660;28;20025;-37
2022/08/25 08:23:44;;;;;;;2.40;2.20;;;25.70;80.20;;;;;;5045634;28;20059;-37
2022/08/25 08:26:10;;;;;;;2.53;2.15;;;25.70;80.00;;;;;;5046135;28;20386;-36
2022/08/25 08:28:36;;;;;;;2.60;2.08;;;25.80;80.10;;;;;;5043791;28;20391;-37
2022/08/25 08:31:02;;;;;;;2.40;2.10;;;25.80;80.00;;;;;;5046081;28;20072;-36
2022/08/25 08:33:27;;;;;;;3.20;2.20;;;25.90;79.90;;;;;;5045406;28;20023;-36
2022/08/25 08:36:02;;;;;;;2.88;2.30;;;26.00;79.70;;;;;;5044609;28;20406;-36
2022/08/25 08:38:28;;;;;;;3.40;2.00;;;26.00;79.60;;;;;;5045387;28;20016;-36
2022/08/25 08:43:48;;;;;;;2.30;2.10;;;26.20;79.40;;;;;;5045519;28;20083;-35
2022/08/25 08:46:13;;;;;;;5.07;2.25;;;26.20;79.20;;;;;;5047443;28;20110;-36
2022/08/25 08:48:53;;;;;;;3.58;2.30;;;26.30;79.20;;;;;;5046163;28;20064;-37
2022/08/25 08:51:23;;;;;;;2.70;2.33;;;26.30;79.10;;;;;;5046556;28;20574;-36
2022/08/25 08:53:54;;;;;;;2.50;2.08;;;26.40;79.00;;;;;;5045842;28;20021;-36
2022/08/25 08:56:35;;;;;;;2.75;1.90;;;26.50;79.00;;;;;;5046552;28;20492;-36
2022/08/25 08:59:05;;;;;;;2.55;1.75;;;26.60;78.80;;;;;;5045303;28;20148;-37
2022/08/25 09:01:43;;;;;;;5.63;2.00;;;26.60;78.60;;;;;;5046419;28;20025;-37
2022/08/25 09:04:17;;;;;;;4.68;2.60;;;26.70;78.50;;;;;;5045978;28;20060;-35
2022/08/25 09:06:46;;;;;;;3.65;2.58;;;26.80;78.50;;;;;;5046598;28;20045;-36
2022/08/25 09:09:18;;;;;;;2.40;2.20;;;26.80;78.20;;;;;;5046467;28;20480;-36
2022/08/25 09:12:04;;;;;;;2.85;2.20;;;26.80;78.10;;;;;;5045277;28;20382;-35
2022/08/25 09:14:38;;;;;;;3.13;2.22;;;26.90;78.00;;;;;;5046038;28;20433;-35
2022/08/25 09:17:18;;;;;;;4.28;2.40;;;26.90;77.80;;;;;;5046512;28;20025;-37
2022/08/25 09:20:03;;;;;;;4.40;2.35;;;27.00;77.90;;;;;;5045429;28;20024;-35
2022/08/25 09:22:40;;;;;;;3.15;2.78;;;27.10;77.90;;;;;;5045496;28;20025;-37
2022/08/25 09:25:35;;;;;;;4.03;2.30;;;27.10;77.70;;;;;;5045450;28;20143;-36
2022/08/25 09:28:27;;;;;;;2.40;2.20;;;27.10;77.60;;;;;;5045968;28;20529;-36
2022/08/25 09:31:07;;;;;;;3.33;2.20;;;27.20;77.60;;;;;;5045304;28;20048;-36
2022/08/25 09:33:33;;;;;;;2.58;2.13;;;27.30;77.30;;;;;;5025447;28;20028;-36
2022/08/25 09:35:59;;;;;;;5.30;2.33;;;27.40;77.00;;;;;;5041132;28;20032;-36
2022/08/25 09:38:27;;;;;;;2.20;2.00;;;27.40;76.60;;;;;;5044903;28;20029;-37
2022/08/25 09:40:57;;;;;;;2.72;2.20;;;27.50;76.50;;;;;;5045409;28;20051;-35
2022/08/25 09:43:31;;;;;;;4.13;2.38;;;27.50;76.20;;;;;;5045895;28;20032;-36
2022/08/25 09:46:15;;;;;;;4.00;2.30;;;27.60;76.10;;;;;;5044732;28;20102;-35
2022/08/25 09:48:46;;;;;;;5.22;1.80;;;27.60;76.00;;;;;;5045620;28;20033;-35
2022/08/25 09:51:34;;;;;;;1.95;1.70;;;27.70;75.90;;;;;;5045461;28;20400;-35
2022/08/25 09:54:17;;;;;;;3.53;2.20;;;27.70;76.00;;;;;;5045186;28;20500;-36
2022/08/25 09:57:00;;;;;;;2.38;1.70;;;27.70;75.50;;;;;;5045196;28;20087;-37
2022/08/25 09:59:35;;;;;;;3.67;1.88;;;27.80;75.50;;;;;;5025473;28;20040;-36
2022/08/25 10:02:22;;;;;;;4.75;2.10;;;27.90;75.40;;;;;;5041590;28;20138;-34
2022/08/25 10:04:48;;;;;;;1.92;1.80;;;27.90;75.00;;;;;;5044887;28;20521;-36
2022/08/25 10:07:38;;;;;;;3.97;2.38;;;28.10;74.80;;;;;;5044896;28;20107;-37
2022/08/25 10:10:16;;;;;;;2.65;1.85;;;28.20;74.10;;;;;;5044697;28;20522;-36
2022/08/25 10:12:46;;;;;;;2.15;1.60;;;28.30;73.60;;;;;;5044861;28;20036;-34
2022/08/25 10:15:31;;;;;;;2.08;1.70;;;28.40;73.30;;;;;;5045429;28;20025;-35
2022/08/25 10:18:23;;;;;;;2.40;1.80;;;28.40;73.30;;;;;;5044745;28;20103;-36
2022/08/25 10:21:14;;;;;;;2.08;1.45;;;28.50;73.20;;;;;;5044380;28;20021;-35
2022/08/25 10:23:47;;;;;;;4.07;2.10;;;28.50;73.10;;;;;;5044187;28;20024;-37
2022/08/25 10:26:42;;;;;;;3.50;1.85;;;28.60;72.70;;;;;;5045252;28;20476;-37
2022/08/25 10:29:38;;;;;;;1.85;1.75;;;28.60;72.50;;;;;;5034923;28;20029;-36
2022/08/25 10:32:12;;;;;;;2.83;1.98;;;28.60;72.50;;;;;;5044593;28;20123;-37
2022/08/25 10:34:54;;;;;;;3.47;2.00;;;28.70;72.50;;;;;;5044741;28;20595;-37
2022/08/25 10:37:38;;;;;;;2.40;1.92;;;28.70;72.20;;;;;;5044277;28;20040;-36
2022/08/25 10:40:27;;;;;;;1.80;1.70;;;28.80;72.10;;;;;;5044764;28;20033;-37
2022/08/25 10:42:52;;;;;;;2.85;1.80;;;28.90;71.80;;;;;;5044628;28;20392;-36
2022/08/25 10:45:42;;;;;;;1.70;1.60;;;29.00;71.40;;;;;;5045552;28;20021;-35
2022/08/25 10:48:30;;;;;;;2.00;1.85;;;29.10;71.30;;;;;;5044820;28;20029;-37
2022/08/25 10:51:00;;;;;;;1.60;1.50;;;29.30;70.40;;;;;;5043646;28;20032;-35
2022/08/25 10:53:47;;;;;;;2.80;1.75;;;29.30;70.00;;;;;;5044121;28;20025;-37
2022/08/25 10:56:32;;;;;;;1.65;1.55;;;29.50;69.60;;;;;;5023872;28;20022;-36
2022/08/25 10:59:06;;;;;;;1.67;1.58;;;29.60;69.40;;;;;;5041136;28;20035;-37
2022/08/25 11:01:49;;;;;;;1.30;1.20;;;29.70;68.90;;;;;;5044515;28;20128;-37
2022/08/25 11:04:35;;;;;;;1.50;1.40;;;29.70;69.00;;;;;;5043749;28;20032;-37
2022/08/25 11:07:18;;;;;;;1.90;1.42;;;29.80;68.80;;;;;;5043750;28;20041;-35
2022/08/25 11:09:49;;;;;;;2.08;1.30;;;29.90;68.40;;;;;;5042157;28;20504;-37
2022/08/25 11:12:28;;;;;;;1.35;1.25;;;29.90;68.70;;;;;;5044813;28;20065;-37
2022/08/25 11:15:18;;;;;;;1.88;1.48;;;29.90;68.10;;;;;;5044226;28;20389;-37
2022/08/25 11:17:57;;;;;;;1.58;1.48;;;29.80;67.60;;;;;;5043457;28;20444;-37
2022/08/25 11:20:32;;;;;;;1.85;1.10;;;29.80;67.80;;;;;;5041396;28;20112;-36
2022/08/25 11:23:24;;;;;;;1.58;1.48;;;29.80;68.00;;;;;;5043526;28;20100;-37
2022/08/25 11:25:52;;;;;;;4.47;1.35;;;29.70;67.30;;;;;;5043149;28;20082;-36
2022/08/25 11:28:46;;;;;;;1.40;1.30;;;29.70;67.20;;;;;;5044356;28;20025;-36
2022/08/25 11:31:14;;;;;;;1.40;1.30;;;29.70;66.90;;;;;;5034029;28;20555;-37
2022/08/25 11:33:39;;;;;;;1.65;1.38;;;29.80;66.20;;;;;;5043360;28;20087;-37
2022/08/25 11:36:25;;;;;;;1.38;1.27;;;29.80;66.30;;;;;;5043775;28;20033;-38
2022/08/25 11:39:10;;;;;;;1.90;1.35;;;29.90;66.70;;;;;;5042644;28;20421;-37
2022/08/25 11:41:54;;;;;;;1.88;1.40;;;30.00;66.60;;;;;;5043304;28;20029;-37
2022/08/25 11:44:44;;;;;;;1.42;1.30;;;30.00;66.50;;;;;;5044053;28;20025;-35
2022/08/25 11:47:36;;;;;;;1.63;1.30;;;30.10;66.30;;;;;;5044340;28;20033;-36
2022/08/25 11:50:06;;;;;;;1.67;1.30;;;30.10;65.70;;;;;;5044047;28;20033;-36
2022/08/25 11:52:32;;;;;;;3.40;1.67;;;30.20;65.70;;;;;;5042888;28;20129;-36
2022/08/25 11:55:25;;;;;;;1.65;1.20;;;30.20;65.00;;;;;;5043665;28;20469;-38
2022/08/25 11:58:19;;;;;;;2.00;1.20;;;30.30;65.20;;;;;;5043417;28;20297;-37
2022/08/25 12:00:44;;;;;;;1.83;1.40;;;30.40;65.40;;;;;;5042625;28;20024;-36
2022/08/25 12:03:35;;;;;;;1.95;1.48;;;30.40;65.30;;;;;;5044132;28;20033;-36
2022/08/25 12:06:29;;;;;;;1.42;1.25;;;30.50;65.00;;;;;;5042877;28;20053;-37
2022/08/25 12:09:03;;;;;;;1.30;1.20;;;30.40;65.30;;;;;;5024431;28;20028;-36
2022/08/25 12:11:41;;;;;;;1.40;1.30;;;30.40;65.20;;;;;;5040968;28;20043;-37
2022/08/25 12:14:24;;;;;;;1.40;1.30;;;30.40;65.20;;;;;;5043379;28;20036;-36
2022/08/25 12:16:50;;;;;;;1.35;1.25;;;30.40;65.10;;;;;;5043425;28;20484;-36
2022/08/25 12:19:22;;;;;;;4.68;1.35;;;30.40;65.10;;;;;;5043529;28;20055;-36
2022/08/25 12:21:49;;;;;;;1.33;1.23;;;30.40;64.40;;;;;;5042473;28;20508;-36
2022/08/25 12:24:20;;;;;;;1.42;1.20;;;30.50;64.50;;;;;;5044199;28;20021;-36
2022/08/25 12:27:08;;;;;;;1.58;1.38;;;30.50;64.80;;;;;;5042695;28;20068;-36
2022/08/25 12:29:48;;;;;;;1.33;1.23;;;30.60;64.00;;;;;;5023043;28;20033;-36
2022/08/25 12:32:39;;;;;;;1.52;1.30;;;30.60;63.70;;;;;;5042955;28;20094;-35
2022/08/25 12:35:14;;;;;;;2.33;1.45;;;30.80;63.40;;;;;;5047187;28;20028;-36
2022/08/25 12:38:03;;;;;;;1.50;1.40;;;30.80;62.30;;;;;;5046703;28;20032;-38
2022/08/25 12:40:37;;;;;;;1.27;1.17;;;30.80;62.80;;;;;;5046375;28;20030;-36
2022/08/25 12:43:23;;;;;;;1.33;0.90;;;30.90;63.30;;;;;;5043357;28;20116;-36
2022/08/25 12:45:52;;;;;;;1.80;1.20;;;30.90;63.80;;;;;;5047636;28;20021;-36
2022/08/25 12:48:26;;;;;;;1.85;1.45;;;30.90;63.80;;;;;;5046533;28;20025;-37
2022/08/25 12:51:08;;;;;;;2.70;1.27;;;30.90;63.50;;;;;;5045744;28;20102;-36
2022/08/25 12:53:38;;;;;;;1.95;1.33;;;30.90;63.70;;;;;;5044658;28;20374;-37
2022/08/25 12:56:15;;;;;;;1.88;1.20;;;31.00;63.70;;;;;;5045793;28;20346;-38
2022/08/25 12:59:00;;;;;;;1.20;1.10;;;31.00;63.80;;;;;;5043910;28;20033;-36
2022/08/25 13:02:03;;;;;;;2.00;1.23;;;31.00;64.10;;;;;;5046177;28;20044;-37
2022/08/25 13:04:59;;;;;;;1.10;1.00;;;31.00;63.80;;;;;;5037839;28;20048;-36
2022/08/25 13:07:57;;;;;;;1.20;1.10;;;30.90;64.00;;;;;;5042393;28;20035;-37
2022/08/25 13:10:40;;;;;;;1.20;1.00;;;31.00;63.70;;;;;;5045778;28;20090;-36
2022/08/25 13:13:30;;;;;;;1.20;1.10;;;31.00;63.70;;;;;;5045610;28;20036;-38
2022/08/25 13:16:08;;;;;;;1.23;1.13;;;31.10;63.90;;;;;;5026519;28;20045;-37
2022/08/25 13:18:36;;;;;;;1.33;1.20;;;31.10;63.80;;;;;;5041858;28;20098;-38